createdAt,value
2018-03-08T00:00:57.691Z,997.61
2018-03-08T00:02:18.668Z,997.64
2018-03-08T00:02:57.659Z,997.61
2018-03-08T00:03:57.648Z,997.66
2018-03-08T00:04:57.701Z,997.64
2018-03-08T00:05:57.626Z,997.64
2018-03-08T00:06:57.598Z,997.62
2018-03-08T00:08:18.552Z,997.66
2018-03-08T00:08:57.569Z,997.64
2018-03-08T00:09:57.532Z,997.64
2018-03-08T00:10:57.501Z,997.67
2018-03-08T00:11:57.472Z,997.66
2018-03-08T00:12:57.478Z,997.68
2018-03-08T00:14:18.491Z,997.67
2018-03-08T00:14:57.432Z,997.71
2018-03-08T00:15:57.412Z,997.67
2018-03-08T00:16:57.372Z,997.65
2018-03-08T00:17:57.408Z,997.67
2018-03-08T00:18:57.335Z,997.68
2018-03-08T00:20:18.323Z,997.65
2018-03-08T00:20:57.314Z,997.67
2018-03-08T00:21:57.269Z,997.70
2018-03-08T00:22:57.250Z,997.70
2018-03-08T00:23:57.240Z,997.69
2018-03-08T00:24:57.211Z,997.70
2018-03-08T00:26:18.218Z,997.70
2018-03-08T00:26:57.205Z,997.69
2018-03-08T00:27:57.188Z,997.71
2018-03-08T00:28:57.210Z,997.73
2018-03-08T00:29:57.134Z,997.74
2018-03-08T00:30:57.129Z,997.72
2018-03-08T00:32:18.083Z,997.70
2018-03-08T00:32:57.100Z,997.64
2018-03-08T00:33:57.066Z,997.70
2018-03-08T00:34:57.061Z,997.69
2018-03-08T00:35:57.004Z,997.67
2018-03-08T00:36:56.982Z,997.64
2018-03-08T00:38:17.972Z,997.63
2018-03-08T00:38:56.932Z,997.64
2018-03-08T00:39:56.969Z,997.60
2018-03-08T00:40:56.947Z,997.59
2018-03-08T00:41:56.922Z,997.60
2018-03-08T00:42:56.848Z,997.60
2018-03-08T00:44:17.847Z,997.58
2018-03-08T00:44:56.811Z,997.62
2018-03-08T00:45:56.802Z,997.62
2018-03-08T00:46:56.781Z,997.60
2018-03-08T00:47:56.765Z,997.62
2018-03-08T00:48:56.768Z,997.59
2018-03-08T00:50:17.761Z,997.58
2018-03-08T00:50:56.731Z,997.54
2018-03-08T00:51:57.634Z,997.57
2018-03-08T00:52:56.645Z,997.58
2018-03-08T00:53:56.660Z,997.57
2018-03-08T00:54:56.629Z,997.52
2018-03-08T00:56:17.612Z,997.52
2018-03-08T00:56:56.570Z,997.54
2018-03-08T00:57:56.565Z,997.55
2018-03-08T00:58:56.548Z,997.49
2018-03-08T00:59:56.519Z,997.56
2018-03-08T01:00:56.506Z,997.51
2018-03-08T01:02:17.518Z,997.53
2018-03-08T01:02:56.444Z,997.52
2018-03-08T01:03:56.430Z,997.45
2018-03-08T01:04:56.429Z,997.41
2018-03-08T01:05:56.396Z,997.40
2018-03-08T01:06:56.370Z,997.36
2018-03-08T01:08:17.352Z,997.39
2018-03-08T01:08:56.359Z,997.38
2018-03-08T01:09:56.326Z,997.42
2018-03-08T01:10:56.300Z,997.40
2018-03-08T01:11:56.295Z,997.41
2018-03-08T01:12:56.257Z,997.40
2018-03-08T01:14:17.247Z,997.39
2018-03-08T01:14:56.226Z,997.39
2018-03-08T01:15:56.256Z,997.37
2018-03-08T01:16:56.174Z,997.39
2018-03-08T01:17:56.149Z,997.39
2018-03-08T01:18:56.149Z,997.39
2018-03-08T01:20:17.147Z,997.39
2018-03-08T01:20:56.104Z,997.40
2018-03-08T01:21:56.141Z,997.39
2018-03-08T01:22:56.075Z,997.36
2018-03-08T01:23:56.056Z,997.40
2018-03-08T01:24:56.066Z,997.35
2018-03-08T01:26:17.015Z,997.34
2018-03-08T01:26:55.961Z,997.34
2018-03-08T01:27:55.979Z,997.36
2018-03-08T01:28:55.959Z,997.34
2018-03-08T01:29:55.919Z,997.36
2018-03-08T01:30:55.886Z,997.37
2018-03-08T01:32:16.867Z,997.39
2018-03-08T01:32:55.881Z,997.42
2018-03-08T01:33:55.828Z,997.41
2018-03-08T01:34:55.811Z,997.44
2018-03-08T01:35:55.787Z,997.44
2018-03-08T01:36:55.788Z,997.44
2018-03-08T01:38:16.773Z,997.40
2018-03-08T01:38:55.783Z,997.37
2018-03-08T01:39:55.750Z,997.36
2018-03-08T01:40:55.708Z,997.36
2018-03-08T01:41:55.667Z,997.37
2018-03-08T01:42:55.659Z,997.35
2018-03-08T01:44:16.625Z,997.36
2018-03-08T01:44:55.614Z,997.41
2018-03-08T01:45:55.600Z,997.37
2018-03-08T01:46:55.563Z,997.37
2018-03-08T01:47:55.547Z,997.32
2018-03-08T01:48:55.523Z,997.32
2018-03-08T01:50:16.511Z,997.33
2018-03-08T01:50:55.480Z,997.33
2018-03-08T01:51:55.462Z,997.30
2018-03-08T01:52:55.440Z,997.27
2018-03-08T01:53:55.418Z,997.26
2018-03-08T01:54:55.398Z,997.27
2018-03-08T01:56:16.395Z,997.26
2018-03-08T01:56:55.411Z,997.28
2018-03-08T01:57:55.345Z,997.24
2018-03-08T01:58:55.326Z,997.23
2018-03-08T01:59:55.301Z,997.27
2018-03-08T02:00:55.280Z,997.27
2018-03-08T02:02:16.263Z,997.28
2018-03-08T02:02:55.238Z,997.24
2018-03-08T02:03:55.217Z,997.30
2018-03-08T02:04:55.201Z,997.28
2018-03-08T02:05:55.175Z,997.29
2018-03-08T02:06:55.161Z,997.28
2018-03-08T02:08:16.146Z,997.26
2018-03-08T02:08:55.120Z,997.24
2018-03-08T02:09:55.100Z,997.24
2018-03-08T02:10:55.077Z,997.22
2018-03-08T02:11:55.057Z,997.15
2018-03-08T02:12:55.041Z,997.18
2018-03-08T02:14:16.018Z,997.12
2018-03-08T02:14:54.999Z,997.15
2018-03-08T02:15:54.986Z,997.07
2018-03-08T02:16:54.963Z,997.10
2018-03-08T02:17:54.940Z,997.09
2018-03-08T02:18:54.913Z,997.11
2018-03-08T02:20:15.899Z,997.11
2018-03-08T02:20:54.906Z,997.12
2018-03-08T02:21:54.853Z,997.13
2018-03-08T02:22:54.837Z,997.08
2018-03-08T02:23:54.815Z,997.15
2018-03-08T02:24:54.800Z,997.14
2018-03-08T02:26:15.781Z,997.12
2018-03-08T02:26:54.755Z,997.12
2018-03-08T02:27:54.740Z,997.13
2018-03-08T02:28:54.746Z,997.11
2018-03-08T02:29:54.692Z,997.10
2018-03-08T02:30:54.673Z,997.11
2018-03-08T02:32:15.653Z,997.10
2018-03-08T02:32:54.635Z,997.12
2018-03-08T02:33:54.616Z,997.09
2018-03-08T02:34:54.601Z,997.10
2018-03-08T02:35:54.575Z,997.04
2018-03-08T02:36:54.552Z,997.09
2018-03-08T02:38:15.542Z,997.09
2018-03-08T02:38:54.512Z,997.10
2018-03-08T02:39:54.492Z,997.08
2018-03-08T02:40:54.470Z,997.06
2018-03-08T02:41:54.459Z,997.07
2018-03-08T02:42:54.482Z,997.11
2018-03-08T02:44:15.414Z,997.05
2018-03-08T02:44:54.397Z,997.05
2018-03-08T02:45:54.379Z,997.03
2018-03-08T02:46:54.372Z,997.04
2018-03-08T02:47:54.329Z,997.12
2018-03-08T02:48:54.311Z,997.09
2018-03-08T02:50:15.294Z,997.09
2018-03-08T02:50:54.283Z,997.07
2018-03-08T02:51:54.247Z,997.06
2018-03-08T02:52:54.229Z,997.05
2018-03-08T02:53:54.204Z,997.07
2018-03-08T02:54:54.188Z,997.03
2018-03-08T02:56:15.169Z,997.05
2018-03-08T02:56:54.152Z,997.04
2018-03-08T02:57:54.126Z,997.01
2018-03-08T02:58:54.103Z,997.00
2018-03-08T02:59:54.082Z,997.00
2018-03-08T03:00:54.072Z,996.98
2018-03-08T03:02:15.061Z,997.00
2018-03-08T03:02:54.029Z,996.99
2018-03-08T03:03:54.007Z,997.01
2018-03-08T03:04:53.986Z,996.96
2018-03-08T03:05:53.964Z,997.01
2018-03-08T03:06:53.944Z,996.98
2018-03-08T03:08:14.928Z,996.95
2018-03-08T03:08:53.903Z,996.96
2018-03-08T03:09:53.934Z,996.91
2018-03-08T03:10:53.868Z,996.95
2018-03-08T03:11:53.844Z,997.02
2018-03-08T03:12:53.820Z,996.93
2018-03-08T03:14:14.804Z,996.95
2018-03-08T03:14:53.780Z,996.94
2018-03-08T03:15:53.761Z,996.95
2018-03-08T03:16:53.763Z,996.95
2018-03-08T03:17:53.719Z,996.93
2018-03-08T03:18:53.721Z,996.96
2018-03-08T03:20:14.682Z,997.00
2018-03-08T03:20:53.670Z,996.97
2018-03-08T03:21:53.641Z,996.98
2018-03-08T03:22:53.624Z,996.98
2018-03-08T03:23:53.606Z,996.97
2018-03-08T03:24:53.580Z,996.98
2018-03-08T03:26:14.564Z,996.96
2018-03-08T03:26:53.540Z,996.99
2018-03-08T03:27:53.523Z,996.99
2018-03-08T03:28:53.504Z,996.99
2018-03-08T03:29:53.499Z,997.02
2018-03-08T03:30:53.458Z,997.04
2018-03-08T03:32:14.441Z,997.04
2018-03-08T03:32:53.473Z,997.02
2018-03-08T03:33:53.398Z,997.03
2018-03-08T03:34:53.383Z,997.02
2018-03-08T03:35:53.358Z,997.02
2018-03-08T03:36:53.348Z,996.98
2018-03-08T03:38:14.335Z,996.98
2018-03-08T03:38:53.297Z,997.00
2018-03-08T03:39:53.280Z,996.97
2018-03-08T03:40:53.261Z,997.01
2018-03-08T03:41:53.241Z,997.01
2018-03-08T03:42:53.219Z,997.01
2018-03-08T03:44:14.202Z,997.00
2018-03-08T03:44:53.192Z,997.02
2018-03-08T03:45:53.163Z,997.03
2018-03-08T03:46:53.147Z,997.03
2018-03-08T03:47:53.122Z,997.02
2018-03-08T03:48:53.106Z,997.02
2018-03-08T03:50:14.091Z,997.02
2018-03-08T03:50:53.059Z,997.06
2018-03-08T03:51:53.039Z,997.06
2018-03-08T03:52:53.024Z,997.06
2018-03-08T03:53:53.004Z,997.05
2018-03-08T03:54:52.985Z,997.09
2018-03-08T03:56:13.966Z,997.04
2018-03-08T03:56:52.944Z,997.05
2018-03-08T03:57:52.920Z,997.11
2018-03-08T03:58:52.904Z,997.05
2018-03-08T03:59:52.888Z,997.04
2018-03-08T04:00:52.863Z,997.06
2018-03-08T04:02:13.857Z,996.99
2018-03-08T04:02:52.828Z,996.98
2018-03-08T04:03:52.801Z,997.01
2018-03-08T04:04:52.783Z,997.02
2018-03-08T04:05:52.765Z,997.01
2018-03-08T04:06:52.744Z,996.96
2018-03-08T04:08:13.729Z,996.95
2018-03-08T04:08:52.712Z,996.93
2018-03-08T04:09:52.690Z,996.95
2018-03-08T04:10:52.671Z,996.94
2018-03-08T04:11:52.660Z,996.95
2018-03-08T04:12:52.632Z,996.99
2018-03-08T04:14:13.613Z,996.96
2018-03-08T04:14:52.596Z,996.98
2018-03-08T04:15:52.576Z,996.97
2018-03-08T04:16:52.563Z,997.00
2018-03-08T04:17:52.524Z,996.96
2018-03-08T04:18:52.512Z,996.99
2018-03-08T04:20:13.493Z,996.92
2018-03-08T04:20:52.467Z,996.93
2018-03-08T04:21:52.450Z,996.98
2018-03-08T04:22:52.433Z,996.99
2018-03-08T04:23:52.416Z,996.97
2018-03-08T04:24:52.395Z,996.98
2018-03-08T04:26:13.376Z,996.99
2018-03-08T04:26:52.354Z,996.98
2018-03-08T04:27:52.329Z,996.98
2018-03-08T04:28:52.314Z,996.98
2018-03-08T04:29:52.291Z,997.03
2018-03-08T04:30:52.284Z,997.01
2018-03-08T04:32:13.257Z,997.00
2018-03-08T04:32:52.233Z,996.99
2018-03-08T04:33:52.213Z,996.97
2018-03-08T04:34:52.197Z,997.00
2018-03-08T04:35:52.174Z,997.00
2018-03-08T04:36:52.156Z,997.00
2018-03-08T04:38:13.141Z,996.99
2018-03-08T04:38:52.128Z,997.00
2018-03-08T04:39:52.123Z,997.04
2018-03-08T04:40:52.079Z,997.06
2018-03-08T04:41:52.063Z,997.02
2018-03-08T04:42:52.040Z,997.06
2018-03-08T04:44:13.018Z,997.03
2018-03-08T04:44:52.003Z,996.99
2018-03-08T04:45:51.975Z,997.00
2018-03-08T04:46:51.957Z,997.02
2018-03-08T04:47:51.940Z,997.00
2018-03-08T04:48:51.937Z,997.01
2018-03-08T04:50:12.905Z,996.99
2018-03-08T04:50:51.880Z,997.01
2018-03-08T04:51:51.860Z,997.03
2018-03-08T04:52:51.849Z,997.02
2018-03-08T04:53:51.829Z,997.06
2018-03-08T04:54:51.803Z,997.00
2018-03-08T04:56:12.783Z,997.04
2018-03-08T04:56:51.762Z,996.98
2018-03-08T04:57:51.744Z,996.95
2018-03-08T04:58:51.722Z,996.93
2018-03-08T04:59:51.705Z,996.93
2018-03-08T05:00:51.682Z,996.85
2018-03-08T05:02:12.664Z,996.91
2018-03-08T05:02:51.645Z,996.91
2018-03-08T05:03:51.627Z,996.98
2018-03-08T05:04:51.610Z,996.99
2018-03-08T05:05:51.584Z,996.96
2018-03-08T05:06:52.511Z,996.97
2018-03-08T05:08:12.550Z,996.93
2018-03-08T05:08:51.528Z,996.97
2018-03-08T05:09:51.503Z,996.95
2018-03-08T05:10:51.482Z,996.92
2018-03-08T05:11:51.467Z,996.87
2018-03-08T05:12:51.461Z,996.88
2018-03-08T05:14:12.430Z,996.89
2018-03-08T05:14:51.413Z,996.87
2018-03-08T05:15:51.408Z,996.92
2018-03-08T05:16:51.370Z,996.93
2018-03-08T05:17:51.353Z,996.91
2018-03-08T05:18:51.332Z,996.89
2018-03-08T05:20:12.316Z,996.92
2018-03-08T05:20:51.291Z,996.93
2018-03-08T05:21:51.279Z,996.89
2018-03-08T05:22:51.249Z,996.90
2018-03-08T05:23:51.230Z,996.85
2018-03-08T05:24:51.212Z,996.92
2018-03-08T05:26:12.196Z,996.88
2018-03-08T05:26:51.172Z,996.90
2018-03-08T05:27:51.154Z,996.89
2018-03-08T05:28:51.135Z,996.88
2018-03-08T05:29:51.117Z,996.90
2018-03-08T05:30:51.133Z,996.86
2018-03-08T05:32:12.090Z,996.86
2018-03-08T05:32:51.059Z,996.88
2018-03-08T05:33:51.052Z,996.85
2018-03-08T05:34:51.018Z,996.85
2018-03-08T05:35:51.003Z,996.87
2018-03-08T05:36:50.982Z,996.85
2018-03-08T05:38:11.960Z,996.86
2018-03-08T05:38:50.986Z,996.89
2018-03-08T05:39:50.922Z,996.91
2018-03-08T05:40:50.908Z,996.81
2018-03-08T05:41:50.881Z,996.84
2018-03-08T05:42:50.868Z,996.83
2018-03-08T05:44:11.863Z,996.82
2018-03-08T05:44:50.837Z,996.84
2018-03-08T05:45:50.807Z,996.85
2018-03-08T05:46:50.792Z,996.81
2018-03-08T05:47:50.775Z,996.84
2018-03-08T05:48:50.745Z,996.86
2018-03-08T05:50:11.730Z,996.86
2018-03-08T05:50:50.724Z,996.81
2018-03-08T05:51:50.698Z,996.85
2018-03-08T05:52:50.672Z,996.78
2018-03-08T05:53:50.658Z,996.82
2018-03-08T05:54:50.634Z,996.82
2018-03-08T05:56:11.621Z,996.89
2018-03-08T05:56:50.594Z,996.91
2018-03-08T05:57:50.576Z,996.89
2018-03-08T05:58:50.563Z,996.91
2018-03-08T05:59:50.543Z,996.86
2018-03-08T06:00:50.553Z,996.89
2018-03-08T06:02:11.502Z,996.87
2018-03-08T06:02:50.484Z,996.91
2018-03-08T06:03:50.460Z,996.85
2018-03-08T06:04:50.445Z,996.88
2018-03-08T06:05:50.428Z,996.89
2018-03-08T06:06:50.434Z,996.85
2018-03-08T06:08:11.394Z,996.81
2018-03-08T06:08:50.378Z,996.83
2018-03-08T06:09:50.366Z,996.85
2018-03-08T06:10:50.416Z,996.86
2018-03-08T06:11:50.324Z,996.83
2018-03-08T06:12:50.288Z,996.84
2018-03-08T06:14:11.274Z,996.86
2018-03-08T06:14:50.266Z,996.88
2018-03-08T06:15:50.242Z,996.85
2018-03-08T06:16:50.219Z,996.87
2018-03-08T06:17:50.231Z,996.87
2018-03-08T06:18:50.178Z,996.87
2018-03-08T06:20:11.175Z,996.92
2018-03-08T06:20:50.142Z,996.91
2018-03-08T06:21:50.125Z,996.93
2018-03-08T06:22:50.097Z,996.94
2018-03-08T06:23:50.089Z,996.94
2018-03-08T06:24:50.070Z,996.97
2018-03-08T06:26:11.654Z,996.90
2018-03-08T06:26:50.047Z,996.96
2018-03-08T06:27:50.006Z,996.91
2018-03-08T06:28:50.012Z,996.90
2018-03-08T06:29:49.987Z,996.95
2018-03-08T06:30:49.955Z,996.92
2018-03-08T06:32:10.947Z,996.89
2018-03-08T06:32:49.936Z,996.94
2018-03-08T06:33:49.896Z,996.95
2018-03-08T06:34:49.884Z,996.87
2018-03-08T06:35:49.868Z,996.98
2018-03-08T06:36:49.851Z,996.97
2018-03-08T06:38:11.506Z,996.95
2018-03-08T06:38:49.804Z,996.93
2018-03-08T06:39:49.787Z,996.93
2018-03-08T06:40:49.767Z,996.90
2018-03-08T06:41:49.757Z,996.90
2018-03-08T06:42:49.733Z,996.90
2018-03-08T06:44:10.721Z,996.90
2018-03-08T06:44:49.711Z,996.87
2018-03-08T06:45:49.695Z,996.86
2018-03-08T06:46:49.696Z,996.87
2018-03-08T06:47:49.659Z,996.80
2018-03-08T06:48:49.619Z,996.82
2018-03-08T06:50:10.650Z,996.83
2018-03-08T06:50:49.590Z,996.81
2018-03-08T06:51:49.567Z,996.77
2018-03-08T06:52:49.569Z,996.84
2018-03-08T06:53:49.548Z,996.82
2018-03-08T06:54:50.121Z,996.92
2018-03-08T06:56:10.515Z,996.89
2018-03-08T06:56:49.475Z,996.90
2018-03-08T06:57:49.450Z,996.90
2018-03-08T06:58:49.436Z,996.96
2018-03-08T06:59:49.418Z,996.93
2018-03-08T07:00:49.421Z,996.96
2018-03-08T07:02:10.395Z,996.97
2018-03-08T07:02:49.485Z,996.97
2018-03-08T07:03:49.354Z,997.00
2018-03-08T07:04:49.330Z,997.02
2018-03-08T07:05:49.367Z,996.94
2018-03-08T07:06:49.291Z,997.06
2018-03-08T07:08:10.288Z,997.02
2018-03-08T07:08:49.261Z,997.05
2018-03-08T07:09:49.315Z,996.99
2018-03-08T07:10:49.213Z,996.99
2018-03-08T07:11:49.199Z,997.04
2018-03-08T07:12:49.183Z,996.99
2018-03-08T07:14:10.174Z,997.02
2018-03-08T07:14:49.162Z,997.02
2018-03-08T07:16:49.116Z,996.87
2018-03-08T07:17:49.089Z,996.89
2018-03-08T07:18:49.073Z,996.92
2018-03-08T07:20:10.064Z,996.91
2018-03-08T07:20:49.037Z,996.97
2018-03-08T07:21:49.031Z,996.96
2018-03-08T07:22:49.019Z,996.95
2018-03-08T07:23:48.993Z,996.93
2018-03-08T07:24:48.969Z,996.95
2018-03-08T07:26:09.955Z,996.93
2018-03-08T07:26:48.931Z,996.91
2018-03-08T07:27:48.915Z,996.88
2018-03-08T07:28:49.591Z,996.96
2018-03-08T07:29:48.894Z,996.97
2018-03-08T07:30:48.870Z,996.98
2018-03-08T07:32:09.863Z,996.94
2018-03-08T07:32:48.843Z,996.91
2018-03-08T07:33:48.810Z,996.93
2018-03-08T07:34:48.791Z,997.00
2018-03-08T07:35:48.821Z,996.97
2018-03-08T07:36:48.761Z,996.84
2018-03-08T07:38:09.773Z,996.90
2018-03-08T07:38:48.724Z,996.87
2018-03-08T07:39:48.729Z,996.81
2018-03-08T07:41:48.667Z,996.84
2018-03-08T07:42:48.676Z,996.91
2018-03-08T07:44:09.644Z,996.83
2018-03-08T07:44:48.628Z,996.74
2018-03-08T07:45:48.600Z,996.84
2018-03-08T07:46:50.743Z,996.79
2018-03-08T07:47:48.581Z,996.92
2018-03-08T07:50:09.562Z,996.92
2018-03-08T07:50:48.531Z,996.93
2018-03-08T07:51:48.522Z,996.90
2018-03-08T07:52:48.479Z,996.89
2018-03-08T07:53:48.466Z,996.93
2018-03-08T07:54:48.444Z,996.89
2018-03-08T07:56:09.487Z,996.94
2018-03-08T07:56:48.411Z,996.85
2018-03-08T07:57:48.402Z,996.93
2018-03-08T07:58:48.396Z,996.91
2018-03-08T07:59:48.458Z,996.88
2018-03-08T08:00:48.341Z,996.85
2018-03-08T08:02:09.329Z,996.95
2018-03-08T08:02:48.311Z,996.85
2018-03-08T08:03:48.293Z,996.93
2018-03-08T08:04:48.329Z,996.85
2018-03-08T08:05:48.833Z,996.94
2018-03-08T08:06:49.059Z,996.94
2018-03-08T08:08:09.432Z,996.84
2018-03-08T08:08:48.313Z,996.93
2018-03-08T08:09:48.221Z,997.01
2018-03-08T08:10:48.195Z,996.90
2018-03-08T08:11:48.162Z,996.95
2018-03-08T08:12:48.152Z,996.94
2018-03-08T08:14:09.140Z,996.84
2018-03-08T08:14:48.126Z,996.87
2018-03-08T08:15:48.548Z,996.78
2018-03-08T08:16:48.115Z,996.82
2018-03-08T08:17:48.092Z,996.80
2018-03-08T08:18:48.070Z,996.76
2018-03-08T08:20:09.039Z,996.82
2018-03-08T08:20:48.017Z,996.81
2018-03-08T08:21:48.006Z,996.85
2018-03-08T08:22:47.975Z,996.81
2018-03-08T08:23:47.960Z,996.75
2018-03-08T08:24:47.967Z,996.67
2018-03-08T08:26:08.992Z,996.81
2018-03-08T08:26:48.023Z,996.78
2018-03-08T08:27:47.936Z,996.76
2018-03-08T08:28:47.888Z,996.79
2018-03-08T08:29:47.860Z,996.81
2018-03-08T08:30:47.875Z,996.79
2018-03-08T08:32:08.825Z,996.81
2018-03-08T08:32:48.730Z,996.78
2018-03-08T08:33:47.813Z,996.80
2018-03-08T08:34:47.774Z,996.80
2018-03-08T08:35:47.765Z,996.70
2018-03-08T08:36:47.749Z,996.77
2018-03-08T08:38:08.727Z,996.80
2018-03-08T08:38:47.772Z,996.81
2018-03-08T08:39:47.695Z,996.90
2018-03-08T08:40:47.683Z,996.86
2018-03-08T08:41:47.671Z,996.91
2018-03-08T08:42:47.641Z,996.88
2018-03-08T08:44:08.673Z,996.81
2018-03-08T08:44:47.609Z,996.72
2018-03-08T08:45:47.592Z,996.92
2018-03-08T08:46:47.594Z,996.93
2018-03-08T08:47:47.596Z,996.93
2018-03-08T08:48:47.545Z,996.87
2018-03-08T08:50:08.531Z,996.81
2018-03-08T08:50:47.517Z,996.91
2018-03-08T08:51:47.553Z,996.86
2018-03-08T08:52:47.485Z,996.85
2018-03-08T08:53:47.459Z,996.86
2018-03-08T08:54:47.444Z,996.80
2018-03-08T08:56:08.435Z,996.90
2018-03-08T08:56:47.420Z,996.91
2018-03-08T08:57:47.401Z,996.89
2018-03-08T08:58:47.386Z,996.94
2018-03-08T08:59:47.366Z,996.89
2018-03-08T09:00:47.363Z,996.94
2018-03-08T09:02:08.346Z,996.91
2018-03-08T09:02:47.325Z,996.90
2018-03-08T09:03:47.367Z,996.96
2018-03-08T09:04:47.618Z,996.92
2018-03-08T09:05:47.268Z,996.91
2018-03-08T09:06:47.248Z,996.83
2018-03-08T09:08:08.233Z,996.86
2018-03-08T09:08:47.241Z,996.96
2018-03-08T09:09:47.198Z,996.88
2018-03-08T09:10:47.185Z,996.92
2018-03-08T09:11:47.196Z,996.90
2018-03-08T09:12:47.198Z,996.87
2018-03-08T09:14:08.140Z,996.84
2018-03-08T09:14:47.176Z,996.89
2018-03-08T09:15:47.118Z,996.90
2018-03-08T09:16:47.105Z,996.93
2018-03-08T09:17:47.083Z,996.89
2018-03-08T09:18:47.057Z,996.91
2018-03-08T09:20:08.057Z,996.87
2018-03-08T09:20:47.028Z,996.83
2018-03-08T09:21:47.003Z,996.77
2018-03-08T09:22:46.997Z,996.76
2018-03-08T09:23:47.758Z,996.71
2018-03-08T09:24:46.986Z,996.76
2018-03-08T09:26:07.950Z,996.71
2018-03-08T09:26:46.945Z,996.73
2018-03-08T09:27:46.913Z,996.82
2018-03-08T09:28:46.939Z,996.77
2018-03-08T09:29:46.881Z,996.66
2018-03-08T09:30:46.863Z,996.63
2018-03-08T09:32:07.846Z,996.61
2018-03-08T09:32:46.828Z,996.56
2018-03-08T09:33:46.831Z,996.61
2018-03-08T09:34:46.805Z,996.70
2018-03-08T09:35:46.785Z,996.75
2018-03-08T09:36:46.786Z,996.84
2018-03-08T09:38:07.755Z,996.76
2018-03-08T09:38:46.729Z,996.71
2018-03-08T09:39:46.738Z,996.68
2018-03-08T09:40:46.702Z,996.74
2018-03-08T09:41:46.712Z,996.67
2018-03-08T09:42:46.674Z,996.69
2018-03-08T09:44:07.672Z,996.81
2018-03-08T09:44:46.687Z,996.79
2018-03-08T09:45:46.624Z,996.84
2018-03-08T09:46:46.653Z,996.65
2018-03-08T09:47:46.595Z,996.63
2018-03-08T09:48:46.572Z,996.68
2018-03-08T09:50:08.316Z,996.75
2018-03-08T09:50:46.554Z,996.83
2018-03-08T09:51:46.572Z,996.79
2018-03-08T09:52:46.555Z,996.71
2018-03-08T09:53:46.513Z,996.79
2018-03-08T09:54:46.495Z,996.86
2018-03-08T09:56:07.472Z,996.79
2018-03-08T09:56:46.461Z,996.83
2018-03-08T09:57:46.575Z,996.87
2018-03-08T09:58:46.417Z,996.86
2018-03-08T09:59:46.404Z,996.86
2018-03-08T10:00:46.408Z,996.79
2018-03-08T10:02:07.378Z,996.87
2018-03-08T10:02:46.372Z,996.87
2018-03-08T10:03:46.348Z,996.85
2018-03-08T10:04:46.367Z,996.74
2018-03-08T10:05:46.348Z,996.82
2018-03-08T10:06:46.291Z,996.82
2018-03-08T10:08:07.279Z,996.79
2018-03-08T10:08:46.260Z,996.77
2018-03-08T10:09:46.265Z,996.73
2018-03-08T10:10:46.231Z,996.79
2018-03-08T10:11:46.215Z,996.78
2018-03-08T10:12:46.198Z,996.73
2018-03-08T10:14:07.181Z,996.75
2018-03-08T10:14:46.167Z,996.65
2018-03-08T10:15:46.168Z,996.56
2018-03-08T10:16:46.138Z,996.64
2018-03-08T10:17:46.125Z,996.61
2018-03-08T10:18:46.158Z,996.59
2018-03-08T10:20:07.102Z,996.65
2018-03-08T10:20:46.072Z,996.64
2018-03-08T10:21:46.060Z,996.62
2018-03-08T10:22:46.851Z,996.63
2018-03-08T10:23:46.041Z,996.63
2018-03-08T10:24:46.021Z,996.58
2018-03-08T10:26:07.056Z,996.57
2018-03-08T10:26:46.008Z,996.49
2018-03-08T10:27:45.964Z,996.49
2018-03-08T10:28:45.946Z,996.50
2018-03-08T10:29:45.935Z,996.49
2018-03-08T10:30:46.253Z,996.46
2018-03-08T10:32:45.930Z,996.47
2018-03-08T10:33:45.891Z,996.59
2018-03-08T10:34:45.877Z,996.54
2018-03-08T10:35:45.930Z,996.54
2018-03-08T10:36:45.857Z,996.55
2018-03-08T10:38:06.864Z,996.48
2018-03-08T10:38:45.790Z,996.41
2018-03-08T10:39:45.808Z,996.52
2018-03-08T10:40:45.770Z,996.49
2018-03-08T10:41:45.752Z,996.47
2018-03-08T10:42:45.727Z,996.48
2018-03-08T10:44:06.745Z,996.39
2018-03-08T10:44:45.713Z,996.42
2018-03-08T10:45:45.731Z,996.50
2018-03-08T10:46:46.498Z,996.51
2018-03-08T10:47:45.667Z,996.42
2018-03-08T10:50:06.648Z,996.50
2018-03-08T10:50:45.624Z,996.46
2018-03-08T10:51:45.615Z,996.50
2018-03-08T10:52:45.627Z,996.52
2018-03-08T10:53:45.588Z,996.62
2018-03-08T10:54:47.399Z,996.52
2018-03-08T10:56:07.563Z,996.58
